sensor_id;sensor_type;location;lat;lon;timestamp;P1;durP1;ratioP1;P2;durP2;ratioP2
12163;SDS011;6145;50.192;10.064;2022-10-14T00:02:05;48.13;;;29.77;;
12163;SDS011;6145;50.192;10.064;2022-10-14T00:04:32;47.30;;;26.77;;
12163;SDS011;6145;50.192;10.064;2022-10-14T00:06:59;39.13;;;24.80;;
12163;SDS011;6145;50.192;10.064;2022-10-14T00:09:27;44.80;;;26.47;;
12163;SDS011;6145;50.192;10.064;2022-10-14T00:11:54;47.83;;;28.27;;
12163;SDS011;6145;50.192;10.064;2022-10-14T00:14:21;43.83;;;26.30;;
12163;SDS011;6145;50.192;10.064;2022-10-14T00:16:50;36.43;;;22.53;;
12163;SDS011;6145;50.192;10.064;2022-10-14T00:19:18;43.97;;;26.27;;
12163;SDS011;6145;50.192;10.064;2022-10-14T00:21:45;45.30;;;26.77;;
12163;SDS011;6145;50.192;10.064;2022-10-14T00:24:12;35.93;;;22.40;;
12163;SDS011;6145;50.192;10.064;2022-10-14T00:26:42;32.87;;;21.57;;
12163;SDS011;6145;50.192;10.064;2022-10-14T00:29:10;25.10;;;17.30;;
12163;SDS011;6145;50.192;10.064;2022-10-14T00:31:39;31.03;;;22.47;;
12163;SDS011;6145;50.192;10.064;2022-10-14T00:34:06;37.93;;;24.73;;
12163;SDS011;6145;50.192;10.064;2022-10-14T00:36:36;40.47;;;25.13;;
12163;SDS011;6145;50.192;10.064;2022-10-14T00:39:04;34.13;;;22.97;;
12163;SDS011;6145;50.192;10.064;2022-10-14T00:41:31;25.23;;;17.97;;
12163;SDS011;6145;50.192;10.064;2022-10-14T00:44:02;33.50;;;21.20;;
12163;SDS011;6145;50.192;10.064;2022-10-14T00:46:31;28.80;;;19.50;;
12163;SDS011;6145;50.192;10.064;2022-10-14T00:49:00;25.33;;;18.87;;
12163;SDS011;6145;50.192;10.064;2022-10-14T00:51:30;26.03;;;17.43;;
12163;SDS011;6145;50.192;10.064;2022-10-14T00:53:58;23.93;;;17.37;;
12163;SDS011;6145;50.192;10.064;2022-10-14T00:56:25;24.03;;;18.53;;
12163;SDS011;6145;50.192;10.064;2022-10-14T00:58:54;20.60;;;14.17;;
12163;SDS011;6145;50.192;10.064;2022-10-14T01:01:23;18.60;;;15.90;;
12163;SDS011;6145;50.192;10.064;2022-10-14T01:03:50;23.00;;;16.17;;
12163;SDS011;6145;50.192;10.064;2022-10-14T01:06:19;19.20;;;14.70;;
12163;SDS011;6145;50.192;10.064;2022-10-14T01:08:52;20.37;;;14.50;;
12163;SDS011;6145;50.192;10.064;2022-10-14T01:11:25;18.30;;;14.30;;
12163;SDS011;6145;50.192;10.064;2022-10-14T01:14:01;17.70;;;13.17;;
12163;SDS011;6145;50.192;10.064;2022-10-14T01:16:37;25.27;;;16.60;;
12163;SDS011;6145;50.192;10.064;2022-10-14T01:19:15;22.33;;;16.50;;
12163;SDS011;6145;50.192;10.064;2022-10-14T01:22:03;22.80;;;17.40;;
12163;SDS011;6145;50.192;10.064;2022-10-14T01:24:41;24.03;;;16.73;;
12163;SDS011;6145;50.192;10.064;2022-10-14T01:27:15;27.07;;;18.43;;
12163;SDS011;6145;50.192;10.064;2022-10-14T01:30:03;26.10;;;17.03;;
12163;SDS011;6145;50.192;10.064;2022-10-14T01:32:35;24.47;;;17.40;;
12163;SDS011;6145;50.192;10.064;2022-10-14T01:35:09;26.07;;;17.20;;
12163;SDS011;6145;50.192;10.064;2022-10-14T01:37:44;23.27;;;15.27;;
12163;SDS011;6145;50.192;10.064;2022-10-14T01:40:17;24.80;;;17.63;;
12163;SDS011;6145;50.192;10.064;2022-10-14T01:42:50;27.17;;;18.93;;
12163;SDS011;6145;50.192;10.064;2022-10-14T01:45:20;30.87;;;19.77;;
12163;SDS011;6145;50.192;10.064;2022-10-14T01:47:49;28.40;;;18.73;;
12163;SDS011;6145;50.192;10.064;2022-10-14T01:50:17;20.70;;;15.60;;
12163;SDS011;6145;50.192;10.064;2022-10-14T01:52:46;22.50;;;16.43;;
12163;SDS011;6145;50.192;10.064;2022-10-14T01:55:18;24.60;;;17.37;;
12163;SDS011;6145;50.192;10.064;2022-10-14T01:57:49;21.60;;;16.50;;
12163;SDS011;6145;50.192;10.064;2022-10-14T02:00:20;15.93;;;12.00;;
12163;SDS011;6145;50.192;10.064;2022-10-14T02:02:46;23.17;;;17.03;;
12163;SDS011;6145;50.192;10.064;2022-10-14T02:05:14;19.03;;;14.03;;
12163;SDS011;6145;50.192;10.064;2022-10-14T02:07:45;13.50;;;9.90;;
12163;SDS011;6145;50.192;10.064;2022-10-14T02:10:18;18.77;;;14.37;;
12163;SDS011;6145;50.192;10.064;2022-10-14T02:12:55;12.97;;;9.57;;
12163;SDS011;6145;50.192;10.064;2022-10-14T02:15:35;11.93;;;9.13;;
12163;SDS011;6145;50.192;10.064;2022-10-14T02:18:13;9.60;;;8.20;;
12163;SDS011;6145;50.192;10.064;2022-10-14T02:20:48;8.93;;;7.63;;
12163;SDS011;6145;50.192;10.064;2022-10-14T02:23:21;9.50;;;7.67;;
12163;SDS011;6145;50.192;10.064;2022-10-14T02:25:51;8.17;;;7.37;;
12163;SDS011;6145;50.192;10.064;2022-10-14T02:28:20;9.10;;;8.20;;
12163;SDS011;6145;50.192;10.064;2022-10-14T02:30:50;15.23;;;12.10;;
12163;SDS011;6145;50.192;10.064;2022-10-14T02:33:21;14.47;;;10.97;;
12163;SDS011;6145;50.192;10.064;2022-10-14T02:35:51;17.93;;;14.07;;
12163;SDS011;6145;50.192;10.064;2022-10-14T02:38:19;23.40;;;17.40;;
12163;SDS011;6145;50.192;10.064;2022-10-14T02:40:47;13.27;;;9.47;;
12163;SDS011;6145;50.192;10.064;2022-10-14T02:43:16;10.67;;;9.57;;
12163;SDS011;6145;50.192;10.064;2022-10-14T02:45:44;16.97;;;12.83;;
12163;SDS011;6145;50.192;10.064;2022-10-14T02:48:12;17.60;;;15.03;;
12163;SDS011;6145;50.192;10.064;2022-10-14T02:50:39;18.63;;;14.87;;
12163;SDS011;6145;50.192;10.064;2022-10-14T02:53:06;26.30;;;17.53;;
12163;SDS011;6145;50.192;10.064;2022-10-14T02:55:33;24.87;;;18.10;;
12163;SDS011;6145;50.192;10.064;2022-10-14T02:58:00;23.60;;;16.63;;
12163;SDS011;6145;50.192;10.064;2022-10-14T03:00:27;25.73;;;17.53;;
12163;SDS011;6145;50.192;10.064;2022-10-14T03:02:54;25.20;;;18.47;;
12163;SDS011;6145;50.192;10.064;2022-10-14T03:05:22;25.07;;;19.23;;
12163;SDS011;6145;50.192;10.064;2022-10-14T03:07:49;27.33;;;17.83;;
12163;SDS011;6145;50.192;10.064;2022-10-14T03:10:16;27.73;;;19.27;;
12163;SDS011;6145;50.192;10.064;2022-10-14T03:12:43;31.77;;;20.20;;
12163;SDS011;6145;50.192;10.064;2022-10-14T03:15:09;28.90;;;19.77;;
12163;SDS011;6145;50.192;10.064;2022-10-14T03:17:37;29.33;;;19.87;;
12163;SDS011;6145;50.192;10.064;2022-10-14T03:20:04;29.57;;;20.37;;
12163;SDS011;6145;50.192;10.064;2022-10-14T03:22:33;27.03;;;19.47;;
12163;SDS011;6145;50.192;10.064;2022-10-14T03:25:00;23.90;;;18.20;;
12163;SDS011;6145;50.192;10.064;2022-10-14T03:27:27;28.90;;;19.70;;
12163;SDS011;6145;50.192;10.064;2022-10-14T03:29:54;27.50;;;18.43;;
12163;SDS011;6145;50.192;10.064;2022-10-14T03:32:21;33.67;;;21.80;;
12163;SDS011;6145;50.192;10.064;2022-10-14T03:34:48;28.77;;;19.70;;
12163;SDS011;6145;50.192;10.064;2022-10-14T03:37:15;30.07;;;21.77;;
12163;SDS011;6145;50.192;10.064;2022-10-14T03:39:43;21.10;;;13.37;;
12163;SDS011;6145;50.192;10.064;2022-10-14T03:42:10;14.30;;;11.87;;
12163;SDS011;6145;50.192;10.064;2022-10-14T03:44:36;11.93;;;9.77;;
12163;SDS011;6145;50.192;10.064;2022-10-14T03:47:03;11.27;;;9.77;;
12163;SDS011;6145;50.192;10.064;2022-10-14T03:49:30;11.50;;;9.23;;
12163;SDS011;6145;50.192;10.064;2022-10-14T03:51:57;10.07;;;8.90;;
12163;SDS011;6145;50.192;10.064;2022-10-14T03:54:23;18.40;;;14.53;;
12163;SDS011;6145;50.192;10.064;2022-10-14T03:56:51;22.63;;;15.87;;
12163;SDS011;6145;50.192;10.064;2022-10-14T03:59:18;24.03;;;17.60;;
12163;SDS011;6145;50.192;10.064;2022-10-14T04:01:45;23.17;;;17.83;;
12163;SDS011;6145;50.192;10.064;2022-10-14T04:04:12;29.90;;;19.87;;
12163;SDS011;6145;50.192;10.064;2022-10-14T04:06:38;20.83;;;16.43;;
12163;SDS011;6145;50.192;10.064;2022-10-14T04:09:05;13.83;;;11.17;;
12163;SDS011;6145;50.192;10.064;2022-10-14T04:11:32;12.97;;;10.50;;
12163;SDS011;6145;50.192;10.064;2022-10-14T04:14:00;26.47;;;16.27;;
12163;SDS011;6145;50.192;10.064;2022-10-14T04:16:27;24.77;;;17.97;;
12163;SDS011;6145;50.192;10.064;2022-10-14T04:18:54;22.73;;;17.53;;
12163;SDS011;6145;50.192;10.064;2022-10-14T04:21:20;23.17;;;17.67;;
12163;SDS011;6145;50.192;10.064;2022-10-14T04:23:47;25.10;;;18.07;;
12163;SDS011;6145;50.192;10.064;2022-10-14T04:26:15;18.67;;;13.87;;
12163;SDS011;6145;50.192;10.064;2022-10-14T04:28:42;13.00;;;10.87;;
12163;SDS011;6145;50.192;10.064;2022-10-14T04:31:10;18.97;;;15.47;;
12163;SDS011;6145;50.192;10.064;2022-10-14T04:33:37;20.10;;;13.93;;
12163;SDS011;6145;50.192;10.064;2022-10-14T04:36:04;20.67;;;15.07;;
12163;SDS011;6145;50.192;10.064;2022-10-14T04:38:32;21.93;;;16.43;;
12163;SDS011;6145;50.192;10.064;2022-10-14T04:40:59;25.50;;;17.57;;
12163;SDS011;6145;50.192;10.064;2022-10-14T04:43:26;24.27;;;17.97;;
12163;SDS011;6145;50.192;10.064;2022-10-14T04:45:52;28.00;;;17.87;;
12163;SDS011;6145;50.192;10.064;2022-10-14T04:48:21;30.00;;;21.13;;
12163;SDS011;6145;50.192;10.064;2022-10-14T04:50:48;30.97;;;20.40;;
12163;SDS011;6145;50.192;10.064;2022-10-14T04:53:16;27.87;;;19.27;;
12163;SDS011;6145;50.192;10.064;2022-10-14T04:55:43;28.43;;;19.20;;
12163;SDS011;6145;50.192;10.064;2022-10-14T04:58:11;28.40;;;19.43;;
12163;SDS011;6145;50.192;10.064;2022-10-14T05:00:38;36.50;;;20.60;;
12163;SDS011;6145;50.192;10.064;2022-10-14T05:03:05;21.67;;;15.53;;
12163;SDS011;6145;50.192;10.064;2022-10-14T05:05:33;15.40;;;12.47;;
12163;SDS011;6145;50.192;10.064;2022-10-14T05:08:00;19.07;;;13.93;;
12163;SDS011;6145;50.192;10.064;2022-10-14T05:10:27;25.17;;;18.13;;
12163;SDS011;6145;50.192;10.064;2022-10-14T05:12:54;17.37;;;12.17;;
12163;SDS011;6145;50.192;10.064;2022-10-14T05:15:20;21.83;;;16.00;;
12163;SDS011;6145;50.192;10.064;2022-10-14T05:17:47;22.97;;;16.53;;
12163;SDS011;6145;50.192;10.064;2022-10-14T05:20:14;22.03;;;14.63;;
12163;SDS011;6145;50.192;10.064;2022-10-14T05:22:43;19.93;;;15.90;;
12163;SDS011;6145;50.192;10.064;2022-10-14T05:25:10;22.00;;;15.53;;
12163;SDS011;6145;50.192;10.064;2022-10-14T05:27:37;29.63;;;17.87;;
12163;SDS011;6145;50.192;10.064;2022-10-14T05:30:04;22.77;;;16.90;;
12163;SDS011;6145;50.192;10.064;2022-10-14T05:32:32;23.43;;;17.03;;
12163;SDS011;6145;50.192;10.064;2022-10-14T05:34:58;22.33;;;16.93;;
12163;SDS011;6145;50.192;10.064;2022-10-14T05:37:25;13.70;;;10.73;;
12163;SDS011;6145;50.192;10.064;2022-10-14T05:39:53;12.77;;;10.93;;
12163;SDS011;6145;50.192;10.064;2022-10-14T05:42:20;16.57;;;13.57;;
12163;SDS011;6145;50.192;10.064;2022-10-14T05:44:53;18.27;;;14.73;;
12163;SDS011;6145;50.192;10.064;2022-10-14T05:47:20;17.40;;;13.07;;
12163;SDS011;6145;50.192;10.064;2022-10-14T05:49:46;14.73;;;10.93;;
12163;SDS011;6145;50.192;10.064;2022-10-14T05:52:13;22.10;;;14.13;;
12163;SDS011;6145;50.192;10.064;2022-10-14T05:54:40;18.93;;;14.37;;
12163;SDS011;6145;50.192;10.064;2022-10-14T05:57:08;17.90;;;14.23;;
12163;SDS011;6145;50.192;10.064;2022-10-14T05:59:35;23.77;;;15.13;;
12163;SDS011;6145;50.192;10.064;2022-10-14T06:02:02;12.73;;;11.00;;
12163;SDS011;6145;50.192;10.064;2022-10-14T06:04:28;17.27;;;14.30;;
12163;SDS011;6145;50.192;10.064;2022-10-14T06:06:55;19.30;;;14.10;;
12163;SDS011;6145;50.192;10.064;2022-10-14T06:09:24;19.10;;;14.10;;
12163;SDS011;6145;50.192;10.064;2022-10-14T06:11:51;19.87;;;14.63;;
12163;SDS011;6145;50.192;10.064;2022-10-14T06:14:19;20.83;;;15.27;;
12163;SDS011;6145;50.192;10.064;2022-10-14T06:16:48;15.40;;;12.67;;
12163;SDS011;6145;50.192;10.064;2022-10-14T06:19:15;15.87;;;11.63;;
12163;SDS011;6145;50.192;10.064;2022-10-14T06:21:41;15.73;;;12.77;;
12163;SDS011;6145;50.192;10.064;2022-10-14T06:27:05;15.70;;;11.57;;
12163;SDS011;6145;50.192;10.064;2022-10-14T06:29:33;10.93;;;7.93;;
12163;SDS011;6145;50.192;10.064;2022-10-14T06:32:02;14.70;;;10.80;;
12163;SDS011;6145;50.192;10.064;2022-10-14T06:34:30;7.37;;;6.60;;
12163;SDS011;6145;50.192;10.064;2022-10-14T06:36:56;10.60;;;7.97;;
12163;SDS011;6145;50.192;10.064;2022-10-14T06:39:23;7.83;;;6.80;;
12163;SDS011;6145;50.192;10.064;2022-10-14T06:41:50;8.20;;;6.70;;
12163;SDS011;6145;50.192;10.064;2022-10-14T06:44:17;10.70;;;6.83;;
12163;SDS011;6145;50.192;10.064;2022-10-14T06:46:45;16.40;;;11.03;;
12163;SDS011;6145;50.192;10.064;2022-10-14T06:49:12;15.87;;;11.00;;
12163;SDS011;6145;50.192;10.064;2022-10-14T06:51:48;12.40;;;10.97;;
12163;SDS011;6145;50.192;10.064;2022-10-14T06:54:17;14.53;;;11.33;;
12163;SDS011;6145;50.192;10.064;2022-10-14T06:56:44;13.80;;;10.97;;
12163;SDS011;6145;50.192;10.064;2022-10-14T06:59:10;16.70;;;11.67;;
12163;SDS011;6145;50.192;10.064;2022-10-14T07:01:37;16.43;;;12.00;;
12163;SDS011;6145;50.192;10.064;2022-10-14T07:04:05;15.70;;;12.40;;
12163;SDS011;6145;50.192;10.064;2022-10-14T07:06:33;13.53;;;11.57;;
12163;SDS011;6145;50.192;10.064;2022-10-14T07:09:02;16.30;;;12.43;;
12163;SDS011;6145;50.192;10.064;2022-10-14T07:11:29;16.63;;;12.40;;
12163;SDS011;6145;50.192;10.064;2022-10-14T07:13:56;18.20;;;12.33;;
12163;SDS011;6145;50.192;10.064;2022-10-14T07:16:23;16.37;;;12.90;;
12163;SDS011;6145;50.192;10.064;2022-10-14T07:18:50;16.97;;;12.90;;
12163;SDS011;6145;50.192;10.064;2022-10-14T07:21:18;17.17;;;12.67;;
12163;SDS011;6145;50.192;10.064;2022-10-14T07:23:45;20.50;;;14.20;;
12163;SDS011;6145;50.192;10.064;2022-10-14T07:26:15;20.37;;;13.27;;
12163;SDS011;6145;50.192;10.064;2022-10-14T07:28:42;17.60;;;14.33;;
12163;SDS011;6145;50.192;10.064;2022-10-14T07:31:10;18.00;;;14.67;;
12163;SDS011;6145;50.192;10.064;2022-10-14T07:33:38;17.30;;;15.07;;
12163;SDS011;6145;50.192;10.064;2022-10-14T07:36:06;17.87;;;13.93;;
12163;SDS011;6145;50.192;10.064;2022-10-14T07:38:36;18.40;;;14.23;;
12163;SDS011;6145;50.192;10.064;2022-10-14T07:41:04;24.53;;;15.40;;
12163;SDS011;6145;50.192;10.064;2022-10-14T07:43:33;16.47;;;13.10;;
12163;SDS011;6145;50.192;10.064;2022-10-14T07:46:00;17.80;;;14.37;;
12163;SDS011;6145;50.192;10.064;2022-10-14T07:48:29;20.07;;;14.43;;
12163;SDS011;6145;50.192;10.064;2022-10-14T07:50:57;18.87;;;14.30;;
12163;SDS011;6145;50.192;10.064;2022-10-14T07:53:24;22.53;;;16.70;;
12163;SDS011;6145;50.192;10.064;2022-10-14T07:55:53;20.10;;;14.53;;
12163;SDS011;6145;50.192;10.064;2022-10-14T07:58:23;20.90;;;15.53;;
12163;SDS011;6145;50.192;10.064;2022-10-14T08:00:51;19.70;;;15.23;;
12163;SDS011;6145;50.192;10.064;2022-10-14T08:03:19;22.17;;;14.87;;
12163;SDS011;6145;50.192;10.064;2022-10-14T08:05:46;16.83;;;14.13;;
12163;SDS011;6145;50.192;10.064;2022-10-14T08:08:14;20.73;;;14.70;;
12163;SDS011;6145;50.192;10.064;2022-10-14T08:10:42;18.50;;;15.10;;
12163;SDS011;6145;50.192;10.064;2022-10-14T08:13:11;20.63;;;16.07;;
12163;SDS011;6145;50.192;10.064;2022-10-14T08:15:38;22.07;;;14.67;;
12163;SDS011;6145;50.192;10.064;2022-10-14T08:18:07;20.00;;;15.63;;
12163;SDS011;6145;50.192;10.064;2022-10-14T08:20:36;22.03;;;14.47;;
12163;SDS011;6145;50.192;10.064;2022-10-14T08:23:03;15.03;;;13.40;;
12163;SDS011;6145;50.192;10.064;2022-10-14T08:25:30;17.73;;;14.83;;
12163;SDS011;6145;50.192;10.064;2022-10-14T08:27:57;18.23;;;14.10;;
12163;SDS011;6145;50.192;10.064;2022-10-14T08:30:25;20.20;;;15.43;;
12163;SDS011;6145;50.192;10.064;2022-10-14T08:32:52;17.77;;;15.00;;
12163;SDS011;6145;50.192;10.064;2022-10-14T08:35:19;18.00;;;13.83;;
12163;SDS011;6145;50.192;10.064;2022-10-14T08:37:53;20.30;;;13.60;;
12163;SDS011;6145;50.192;10.064;2022-10-14T08:40:22;17.73;;;12.80;;
12163;SDS011;6145;50.192;10.064;2022-10-14T08:42:50;16.17;;;12.23;;
12163;SDS011;6145;50.192;10.064;2022-10-14T08:45:28;15.53;;;11.93;;
12163;SDS011;6145;50.192;10.064;2022-10-14T08:47:59;16.97;;;12.20;;
12163;SDS011;6145;50.192;10.064;2022-10-14T08:50:35;17.33;;;11.33;;
12163;SDS011;6145;50.192;10.064;2022-10-14T08:53:09;16.00;;;13.53;;
12163;SDS011;6145;50.192;10.064;2022-10-14T08:55:40;16.23;;;12.93;;
12163;SDS011;6145;50.192;10.064;2022-10-14T08:58:11;19.70;;;12.50;;
12163;SDS011;6145;50.192;10.064;2022-10-14T09:00:42;12.13;;;10.87;;
12163;SDS011;6145;50.192;10.064;2022-10-14T09:03:14;17.10;;;11.93;;
12163;SDS011;6145;50.192;10.064;2022-10-14T09:05:46;13.07;;;11.03;;
12163;SDS011;6145;50.192;10.064;2022-10-14T09:08:21;12.90;;;9.63;;
12163;SDS011;6145;50.192;10.064;2022-10-14T09:10:55;14.57;;;11.03;;
12163;SDS011;6145;50.192;10.064;2022-10-14T09:13:26;14.40;;;11.47;;
12163;SDS011;6145;50.192;10.064;2022-10-14T09:15:59;15.10;;;11.13;;
12163;SDS011;6145;50.192;10.064;2022-10-14T09:18:31;13.17;;;11.07;;
12163;SDS011;6145;50.192;10.064;2022-10-14T09:21:02;13.87;;;11.43;;
12163;SDS011;6145;50.192;10.064;2022-10-14T09:23:46;12.17;;;10.67;;
12163;SDS011;6145;50.192;10.064;2022-10-14T09:26:19;13.90;;;11.33;;
12163;SDS011;6145;50.192;10.064;2022-10-14T09:28:46;14.33;;;10.67;;
12163;SDS011;6145;50.192;10.064;2022-10-14T09:31:19;12.43;;;11.10;;
12163;SDS011;6145;50.192;10.064;2022-10-14T09:33:46;14.60;;;11.93;;
12163;SDS011;6145;50.192;10.064;2022-10-14T09:36:14;15.47;;;10.70;;
12163;SDS011;6145;50.192;10.064;2022-10-14T09:38:43;13.10;;;10.57;;
12163;SDS011;6145;50.192;10.064;2022-10-14T09:41:11;19.33;;;11.83;;
12163;SDS011;6145;50.192;10.064;2022-10-14T09:43:55;15.77;;;11.90;;
12163;SDS011;6145;50.192;10.064;2022-10-14T09:46:47;14.20;;;11.13;;
12163;SDS011;6145;50.192;10.064;2022-10-14T09:49:17;13.17;;;11.13;;
12163;SDS011;6145;50.192;10.064;2022-10-14T09:51:47;12.63;;;10.80;;
12163;SDS011;6145;50.192;10.064;2022-10-14T09:54:20;15.60;;;11.63;;
12163;SDS011;6145;50.192;10.064;2022-10-14T09:56:56;14.60;;;10.60;;
12163;SDS011;6145;50.192;10.064;2022-10-14T09:59:25;15.97;;;10.97;;
12163;SDS011;6145;50.192;10.064;2022-10-14T10:01:54;13.00;;;10.20;;
12163;SDS011;6145;50.192;10.064;2022-10-14T10:04:25;12.23;;;10.27;;
12163;SDS011;6145;50.192;10.064;2022-10-14T10:06:59;12.83;;;10.27;;
12163;SDS011;6145;50.192;10.064;2022-10-14T10:09:28;16.10;;;11.67;;
12163;SDS011;6145;50.192;10.064;2022-10-14T10:11:55;14.07;;;12.50;;
12163;SDS011;6145;50.192;10.064;2022-10-14T10:14:22;13.17;;;11.23;;
12163;SDS011;6145;50.192;10.064;2022-10-14T10:16:51;11.97;;;9.13;;
12163;SDS011;6145;50.192;10.064;2022-10-14T10:19:42;11.23;;;9.77;;
12163;SDS011;6145;50.192;10.064;2022-10-14T10:22:14;14.10;;;9.87;;
12163;SDS011;6145;50.192;10.064;2022-10-14T10:24:46;15.67;;;9.67;;
12163;SDS011;6145;50.192;10.064;2022-10-14T10:27:18;12.17;;;10.33;;
12163;SDS011;6145;50.192;10.064;2022-10-14T10:29:45;17.17;;;9.93;;
12163;SDS011;6145;50.192;10.064;2022-10-14T10:32:14;11.03;;;9.10;;
12163;SDS011;6145;50.192;10.064;2022-10-14T10:34:52;9.97;;;8.07;;
12163;SDS011;6145;50.192;10.064;2022-10-14T10:37:33;16.37;;;11.43;;
12163;SDS011;6145;50.192;10.064;2022-10-14T10:43:12;16.97;;;13.80;;
12163;SDS011;6145;50.192;10.064;2022-10-14T10:46:05;13.63;;;10.47;;
12163;SDS011;6145;50.192;10.064;2022-10-14T10:48:42;13.93;;;11.43;;
12163;SDS011;6145;50.192;10.064;2022-10-14T10:51:12;14.47;;;10.30;;
12163;SDS011;6145;50.192;10.064;2022-10-14T10:53:50;13.53;;;9.57;;
12163;SDS011;6145;50.192;10.064;2022-10-14T10:56:29;12.40;;;10.10;;
12163;SDS011;6145;50.192;10.064;2022-10-14T10:59:06;14.80;;;8.40;;
12163;SDS011;6145;50.192;10.064;2022-10-14T11:05:16;9.07;;;7.20;;
12163;SDS011;6145;50.192;10.064;2022-10-14T11:07:50;11.37;;;8.17;;
12163;SDS011;6145;50.192;10.064;2022-10-14T11:10:41;11.90;;;8.83;;
12163;SDS011;6145;50.192;10.064;2022-10-14T11:13:35;10.00;;;7.77;;
12163;SDS011;6145;50.192;10.064;2022-10-14T11:16:12;11.40;;;7.93;;
12163;SDS011;6145;50.192;10.064;2022-10-14T11:18:47;10.80;;;7.83;;
12163;SDS011;6145;50.192;10.064;2022-10-14T11:21:20;10.60;;;8.17;;
12163;SDS011;6145;50.192;10.064;2022-10-14T11:23:59;9.03;;;7.33;;
12163;SDS011;6145;50.192;10.064;2022-10-14T11:26:44;10.30;;;8.30;;
12163;SDS011;6145;50.192;10.064;2022-10-14T11:29:26;11.40;;;9.00;;
12163;SDS011;6145;50.192;10.064;2022-10-14T11:32:06;12.57;;;8.57;;
12163;SDS011;6145;50.192;10.064;2022-10-14T11:34:41;14.07;;;9.60;;
12163;SDS011;6145;50.192;10.064;2022-10-14T11:37:15;9.90;;;8.23;;
12163;SDS011;6145;50.192;10.064;2022-10-14T11:39:53;11.07;;;8.67;;
12163;SDS011;6145;50.192;10.064;2022-10-14T11:42:28;10.77;;;8.10;;
12163;SDS011;6145;50.192;10.064;2022-10-14T11:45:12;10.77;;;8.37;;
12163;SDS011;6145;50.192;10.064;2022-10-14T11:47:51;12.00;;;7.87;;
12163;SDS011;6145;50.192;10.064;2022-10-14T11:50:22;10.70;;;7.30;;
12163;SDS011;6145;50.192;10.064;2022-10-14T11:52:54;10.93;;;7.33;;
12163;SDS011;6145;50.192;10.064;2022-10-14T11:55:26;8.60;;;6.83;;
12163;SDS011;6145;50.192;10.064;2022-10-14T11:57:58;8.80;;;7.07;;
12163;SDS011;6145;50.192;10.064;2022-10-14T12:00:30;10.57;;;6.60;;
12163;SDS011;6145;50.192;10.064;2022-10-14T12:03:01;12.57;;;9.90;;
12163;SDS011;6145;50.192;10.064;2022-10-14T12:05:36;10.83;;;9.60;;
12163;SDS011;6145;50.192;10.064;2022-10-14T12:08:08;10.23;;;7.47;;
12163;SDS011;6145;50.192;10.064;2022-10-14T12:10:44;7.70;;;6.87;;
12163;SDS011;6145;50.192;10.064;2022-10-14T12:13:14;8.03;;;7.00;;
12163;SDS011;6145;50.192;10.064;2022-10-14T12:15:43;11.03;;;7.33;;
12163;SDS011;6145;50.192;10.064;2022-10-14T12:18:14;9.17;;;6.43;;
12163;SDS011;6145;50.192;10.064;2022-10-14T12:20:46;9.03;;;7.20;;
12163;SDS011;6145;50.192;10.064;2022-10-14T12:23:21;9.97;;;6.77;;
12163;SDS011;6145;50.192;10.064;2022-10-14T12:25:54;9.27;;;6.60;;
12163;SDS011;6145;50.192;10.064;2022-10-14T12:28:25;12.03;;;7.47;;
12163;SDS011;6145;50.192;10.064;2022-10-14T12:36:43;11.07;;;7.20;;
12163;SDS011;6145;50.192;10.064;2022-10-14T12:39:26;10.70;;;6.40;;
12163;SDS011;6145;50.192;10.064;2022-10-14T12:41:58;11.63;;;6.07;;
12163;SDS011;6145;50.192;10.064;2022-10-14T12:44:29;12.20;;;6.60;;
12163;SDS011;6145;50.192;10.064;2022-10-14T12:47:06;10.77;;;7.50;;
12163;SDS011;6145;50.192;10.064;2022-10-14T12:49:45;9.13;;;6.80;;
12163;SDS011;6145;50.192;10.064;2022-10-14T12:52:17;8.73;;;6.27;;
12163;SDS011;6145;50.192;10.064;2022-10-14T12:54:50;8.00;;;7.23;;
12163;SDS011;6145;50.192;10.064;2022-10-14T12:57:20;7.10;;;5.70;;
12163;SDS011;6145;50.192;10.064;2022-10-14T12:59:52;10.70;;;7.77;;
12163;SDS011;6145;50.192;10.064;2022-10-14T13:02:24;6.27;;;5.60;;
12163;SDS011;6145;50.192;10.064;2022-10-14T13:04:58;9.30;;;5.77;;
12163;SDS011;6145;50.192;10.064;2022-10-14T13:10:39;8.43;;;6.13;;
12163;SDS011;6145;50.192;10.064;2022-10-14T13:19:39;9.33;;;6.23;;
12163;SDS011;6145;50.192;10.064;2022-10-14T13:22:34;7.77;;;6.87;;
12163;SDS011;6145;50.192;10.064;2022-10-14T13:25:06;9.57;;;6.00;;
12163;SDS011;6145;50.192;10.064;2022-10-14T13:27:41;6.57;;;4.77;;
12163;SDS011;6145;50.192;10.064;2022-10-14T13:30:21;5.73;;;5.23;;
12163;SDS011;6145;50.192;10.064;2022-10-14T13:36:12;8.83;;;6.13;;
12163;SDS011;6145;50.192;10.064;2022-10-14T13:38:44;8.43;;;5.67;;
12163;SDS011;6145;50.192;10.064;2022-10-14T13:41:18;6.70;;;5.30;;
12163;SDS011;6145;50.192;10.064;2022-10-14T13:43:53;7.10;;;4.90;;
12163;SDS011;6145;50.192;10.064;2022-10-14T13:46:24;6.80;;;5.80;;
12163;SDS011;6145;50.192;10.064;2022-10-14T13:48:55;7.67;;;5.77;;
12163;SDS011;6145;50.192;10.064;2022-10-14T13:51:25;6.47;;;5.10;;
12163;SDS011;6145;50.192;10.064;2022-10-14T13:53:54;6.20;;;5.30;;
12163;SDS011;6145;50.192;10.064;2022-10-14T13:56:23;5.10;;;4.53;;
12163;SDS011;6145;50.192;10.064;2022-10-14T14:01:52;9.93;;;6.33;;
12163;SDS011;6145;50.192;10.064;2022-10-14T14:04:23;6.70;;;5.17;;
12163;SDS011;6145;50.192;10.064;2022-10-14T14:06:52;38.20;;;23.57;;
12163;SDS011;6145;50.192;10.064;2022-10-14T14:09:20;9.13;;;8.17;;
12163;SDS011;6145;50.192;10.064;2022-10-14T14:11:52;8.63;;;7.07;;
12163;SDS011;6145;50.192;10.064;2022-10-14T14:14:22;6.17;;;5.13;;
12163;SDS011;6145;50.192;10.064;2022-10-14T14:16:52;5.50;;;4.63;;
12163;SDS011;6145;50.192;10.064;2022-10-14T14:19:21;7.33;;;5.17;;
12163;SDS011;6145;50.192;10.064;2022-10-14T14:21:51;6.00;;;5.03;;
12163;SDS011;6145;50.192;10.064;2022-10-14T14:24:29;5.83;;;5.23;;
12163;SDS011;6145;50.192;10.064;2022-10-14T14:26:58;5.63;;;4.53;;
12163;SDS011;6145;50.192;10.064;2022-10-14T14:29:27;5.97;;;4.90;;
12163;SDS011;6145;50.192;10.064;2022-10-14T14:31:57;8.70;;;4.53;;
12163;SDS011;6145;50.192;10.064;2022-10-14T14:34:26;5.43;;;4.83;;
12163;SDS011;6145;50.192;10.064;2022-10-14T14:36:53;7.70;;;5.40;;
12163;SDS011;6145;50.192;10.064;2022-10-14T14:39:25;6.20;;;5.03;;
12163;SDS011;6145;50.192;10.064;2022-10-14T14:41:53;6.27;;;4.63;;
12163;SDS011;6145;50.192;10.064;2022-10-14T14:44:22;6.57;;;4.77;;
12163;SDS011;6145;50.192;10.064;2022-10-14T14:46:53;7.70;;;4.87;;
12163;SDS011;6145;50.192;10.064;2022-10-14T14:49:24;13.70;;;9.20;;
12163;SDS011;6145;50.192;10.064;2022-10-14T14:51:53;6.43;;;5.53;;
12163;SDS011;6145;50.192;10.064;2022-10-14T14:54:21;7.43;;;4.63;;
12163;SDS011;6145;50.192;10.064;2022-10-14T14:56:49;7.67;;;4.23;;
12163;SDS011;6145;50.192;10.064;2022-10-14T14:59:20;4.40;;;4.00;;
12163;SDS011;6145;50.192;10.064;2022-10-14T15:01:53;6.77;;;6.17;;
12163;SDS011;6145;50.192;10.064;2022-10-14T15:04:21;5.20;;;4.23;;
12163;SDS011;6145;50.192;10.064;2022-10-14T15:06:50;5.97;;;4.30;;
12163;SDS011;6145;50.192;10.064;2022-10-14T15:09:42;10.40;;;4.53;;
12163;SDS011;6145;50.192;10.064;2022-10-14T15:12:49;17.07;;;14.07;;
12163;SDS011;6145;50.192;10.064;2022-10-14T15:18:45;5.20;;;4.23;;
12163;SDS011;6145;50.192;10.064;2022-10-14T15:22:07;5.93;;;4.33;;
12163;SDS011;6145;50.192;10.064;2022-10-14T15:25:30;6.53;;;5.00;;